createdAt,value
2019-04-11T00:01:53.231Z,9.27
2019-04-11T00:04:24.148Z,8.63
2019-04-11T00:06:54.007Z,9.40
2019-04-11T00:09:25.071Z,7.97
2019-04-11T00:11:54.474Z,9.33
2019-04-11T00:14:24.196Z,9.57
2019-04-11T00:16:55.406Z,9.70
2019-04-11T00:19:24.763Z,8.73
2019-04-11T00:21:55.140Z,9.53
2019-04-11T00:24:25.039Z,8.67
2019-04-11T00:26:54.891Z,8.10
2019-04-11T00:29:24.281Z,8.63
2019-04-11T00:31:54.841Z,9.87
2019-04-11T00:34:24.177Z,9.30
2019-04-11T00:36:54.872Z,9.07
2019-04-11T00:39:24.285Z,9.20
2019-04-11T00:41:54.381Z,8.93
2019-04-11T00:44:25.085Z,9.30
2019-04-11T00:46:54.438Z,8.80
2019-04-11T00:49:24.210Z,9.17
2019-04-11T00:51:53.553Z,9.23
2019-04-11T00:54:22.826Z,9.30
2019-04-11T00:56:52.678Z,9.87
2019-04-11T00:59:24.505Z,9.70
2019-04-11T01:01:56.759Z,10.00
2019-04-11T01:04:27.938Z,9.17
2019-04-11T01:06:57.245Z,10.27
2019-04-11T01:09:27.047Z,8.97
2019-04-11T01:11:58.478Z,8.83
2019-04-11T01:14:28.068Z,9.87
2019-04-11T01:16:57.411Z,10.03
2019-04-11T01:19:26.893Z,10.00
2019-04-11T01:21:59.215Z,9.57
2019-04-11T01:24:28.247Z,9.33
2019-04-11T01:26:57.947Z,9.50
2019-04-11T01:29:29.301Z,9.57
2019-04-11T01:32:02.250Z,9.37
2019-04-11T01:34:34.888Z,9.60
2019-04-11T01:37:04.277Z,9.17
2019-04-11T01:39:49.595Z,8.90
2019-04-11T01:42:19.493Z,9.53
2019-04-11T01:44:49.300Z,10.03
2019-04-11T01:47:33.344Z,9.27
2019-04-11T01:50:03.064Z,10.00
2019-04-11T01:52:32.446Z,10.47
2019-04-11T01:55:02.065Z,9.80
2019-04-11T01:57:31.522Z,10.67
2019-04-11T02:00:01.902Z,10.53
2019-04-11T02:02:42.887Z,11.03
2019-04-11T02:05:18.828Z,10.43
2019-04-11T02:07:49.004Z,11.00
2019-04-11T02:10:18.937Z,11.03
2019-04-11T02:12:48.292Z,11.23
2019-04-11T02:15:17.642Z,10.87
2019-04-11T02:17:47.043Z,10.83
2019-04-11T02:20:17.834Z,11.67
2019-04-11T02:23:09.116Z,10.57
2019-04-11T02:25:54.480Z,10.57
2019-04-11T02:28:24.437Z,10.73
2019-04-11T02:30:56.248Z,11.13
2019-04-11T02:33:26.890Z,11.03
2019-04-11T02:35:57.167Z,11.83
2019-04-11T02:38:28.295Z,10.77
2019-04-11T02:40:57.940Z,11.83
2019-04-11T02:43:27.553Z,11.33
2019-04-11T02:46:10.059Z,12.43
2019-04-11T02:48:28.842Z,10.93
2019-04-11T02:50:58.525Z,11.73
2019-04-11T02:53:30.028Z,11.40
2019-04-11T02:56:00.639Z,11.40
2019-04-11T02:58:31.759Z,11.47
2019-04-11T03:01:05.097Z,10.67
2019-04-11T03:03:34.131Z,11.23
2019-04-11T03:06:04.450Z,11.53
2019-04-11T03:08:35.932Z,11.50
2019-04-11T03:11:05.451Z,11.30
2019-04-11T03:13:38.153Z,12.27
2019-04-11T03:16:23.764Z,11.17
2019-04-11T03:18:54.836Z,10.77
2019-04-11T03:21:14.622Z,11.73
2019-04-11T03:23:41.755Z,11.67
2019-04-11T03:26:12.415Z,11.30
2019-04-11T03:28:49.077Z,11.17
2019-04-11T03:31:58.427Z,11.83
2019-04-11T03:34:53.544Z,11.87
2019-04-11T03:39:11.917Z,12.03
2019-04-11T03:41:39.977Z,11.73
2019-04-11T03:44:00.348Z,11.63
2019-04-11T03:46:43.414Z,12.10
2019-04-11T03:49:06.103Z,12.47
2019-04-11T03:51:29.685Z,11.33
2019-04-11T03:54:01.015Z,12.13
2019-04-11T03:56:30.870Z,12.73
2019-04-11T03:59:01.464Z,11.13
2019-04-11T04:01:32.005Z,12.07
2019-04-11T04:04:02.785Z,12.50
2019-04-11T04:06:33.536Z,12.13
2019-04-11T04:09:04.224Z,12.20
2019-04-11T04:11:36.045Z,12.07
2019-04-11T04:14:15.511Z,12.53
2019-04-11T04:17:19.326Z,11.67
2019-04-11T04:20:02.241Z,11.80
2019-04-11T04:22:56.455Z,12.23
2019-04-11T04:25:28.583Z,12.07
2019-04-11T04:28:05.389Z,11.80
2019-04-11T04:30:36.019Z,11.40
2019-04-11T04:33:07.118Z,12.43
2019-04-11T04:35:38.029Z,12.13
2019-04-11T04:38:09.323Z,13.17
2019-04-11T04:40:50.905Z,11.20
2019-04-11T04:43:11.900Z,12.40
2019-04-11T04:45:58.317Z,12.03
2019-04-11T04:48:17.908Z,12.53
2019-04-11T04:50:44.881Z,12.40
2019-04-11T04:53:16.077Z,12.50
2019-04-11T04:55:45.756Z,12.47
2019-04-11T04:58:15.891Z,13.23
2019-04-11T05:00:48.239Z,12.77
2019-04-11T05:03:17.909Z,13.20
2019-04-11T05:05:48.483Z,13.13
2019-04-11T05:08:18.564Z,13.17
2019-04-11T05:10:49.149Z,13.30
2019-04-11T05:13:19.589Z,12.77
2019-04-11T05:16:07.306Z,13.80
2019-04-11T05:18:26.360Z,13.17
2019-04-11T05:20:56.974Z,13.40
2019-04-11T05:23:27.656Z,13.23
2019-04-11T05:26:00.062Z,14.40
2019-04-11T05:28:32.164Z,13.93
2019-04-11T05:31:06.091Z,14.70
2019-04-11T05:33:36.991Z,13.43
2019-04-11T05:36:08.202Z,14.77
2019-04-11T05:38:38.081Z,14.00
2019-04-11T05:41:12.083Z,12.60
2019-04-11T05:43:41.713Z,13.47
2019-04-11T05:46:26.063Z,13.73
2019-04-11T05:48:47.979Z,13.67
2019-04-11T05:51:21.259Z,13.27
2019-04-11T05:53:50.034Z,13.00
2019-04-11T05:56:23.587Z,13.77
2019-04-11T05:58:55.605Z,13.53
2019-04-11T06:01:31.895Z,12.70
2019-04-11T06:04:13.113Z,13.87
2019-04-11T06:07:07.935Z,14.10
2019-04-11T06:09:41.435Z,13.20
2019-04-11T06:12:41.421Z,12.90
2019-04-11T06:15:15.681Z,13.87
2019-04-11T06:17:46.182Z,13.47
2019-04-11T06:20:33.503Z,13.50
2019-04-11T06:23:25.502Z,12.87
2019-04-11T06:26:11.483Z,13.53
2019-04-11T06:28:42.975Z,13.80
2019-04-11T06:31:30.132Z,13.63
2019-04-11T06:34:02.351Z,13.87
2019-04-11T06:36:57.157Z,13.37
2019-04-11T06:39:33.526Z,13.00
2019-04-11T06:42:31.869Z,13.13
2019-04-11T06:45:19.692Z,12.70
2019-04-11T06:47:59.500Z,12.20
2019-04-11T06:50:43.784Z,12.23
2019-04-11T06:53:17.187Z,12.77
2019-04-11T06:56:04.553Z,12.77
2019-04-11T06:58:37.660Z,12.23
2019-04-11T07:01:11.983Z,12.03
2019-04-11T07:03:53.395Z,11.63
2019-04-11T07:06:29.263Z,12.10
2019-04-11T07:09:17.666Z,12.43
2019-04-11T07:11:54.901Z,11.23
2019-04-11T07:14:35.944Z,11.87
2019-04-11T07:17:23.102Z,11.70
2019-04-11T07:20:10.909Z,11.83
2019-04-11T07:22:58.063Z,12.43
2019-04-11T07:25:45.821Z,12.23
2019-04-11T07:28:25.248Z,12.17
2019-04-11T07:31:12.793Z,13.20
2019-04-11T07:34:12.571Z,13.07
2019-04-11T07:37:10.471Z,13.30
2019-04-11T07:40:05.892Z,12.53
2019-04-11T07:42:54.808Z,13.00
2019-04-11T07:45:34.278Z,13.63
2019-04-11T07:48:29.236Z,13.47
2019-04-11T07:51:08.859Z,14.27
2019-04-11T07:53:41.447Z,14.13
2019-04-11T07:56:12.005Z,13.53
2019-04-11T07:58:47.894Z,14.80
2019-04-11T08:01:45.515Z,12.80
2019-04-11T08:04:29.977Z,13.50
2019-04-11T08:07:24.440Z,12.73
2019-04-11T08:10:02.422Z,13.27
2019-04-11T08:12:32.496Z,13.33
2019-04-11T08:15:29.878Z,12.27
2019-04-11T08:18:02.161Z,13.37
2019-04-11T08:20:50.447Z,12.90
2019-04-11T08:23:21.377Z,13.77
2019-04-11T08:26:09.526Z,12.97
2019-04-11T08:28:40.709Z,13.17
2019-04-11T08:31:32.879Z,13.20
2019-04-11T08:34:05.017Z,13.00
2019-04-11T08:36:59.425Z,12.40
2019-04-11T08:39:33.278Z,12.47
2019-04-11T08:42:21.515Z,13.27
2019-04-11T08:44:50.835Z,13.57
2019-04-11T08:47:20.762Z,13.67
2019-04-11T08:49:52.321Z,13.23
2019-04-11T08:52:29.810Z,13.30
2019-04-11T08:55:20.775Z,12.70
2019-04-11T08:58:02.337Z,12.83
2019-04-11T09:00:42.282Z,13.07
2019-04-11T09:03:18.372Z,13.27
2019-04-11T09:05:56.869Z,14.10
2019-04-11T09:09:00.720Z,13.50
2019-04-11T09:11:52.447Z,13.37
2019-04-11T09:14:57.465Z,15.03
2019-04-11T09:17:34.244Z,14.23
2019-04-11T09:20:21.559Z,14.00
2019-04-11T09:23:20.113Z,13.17
2019-04-11T09:26:07.618Z,13.60
2019-04-11T09:28:41.933Z,13.37
2019-04-11T09:31:43.717Z,12.68
2019-04-11T09:34:33.591Z,13.78
2019-04-11T09:37:30.854Z,13.83
2019-04-11T09:40:17.344Z,14.20
2019-04-11T09:43:04.576Z,13.50
2019-04-11T09:46:06.011Z,13.13
2019-04-11T09:48:56.058Z,13.17
2019-04-11T09:51:40.446Z,14.07
2019-04-11T09:54:32.224Z,13.80
2019-04-11T09:57:22.919Z,13.80
2019-04-11T10:00:18.452Z,13.87
2019-04-11T10:03:19.665Z,14.17
2019-04-11T10:05:58.762Z,13.63
2019-04-11T10:08:47.038Z,14.13
2019-04-11T10:11:34.480Z,14.43
2019-04-11T10:14:07.237Z,13.10
2019-04-11T10:16:54.264Z,14.30
2019-04-11T10:19:42.529Z,14.30
2019-04-11T10:22:49.270Z,13.47
2019-04-11T10:25:37.213Z,14.53
2019-04-11T10:28:30.481Z,14.20
2019-04-11T10:31:18.083Z,14.20
2019-04-11T10:34:19.608Z,13.97
2019-04-11T10:37:09.670Z,14.43
2019-04-11T10:40:04.220Z,15.47
2019-04-11T10:42:34.730Z,14.10
2019-04-11T10:45:24.751Z,14.00
2019-04-11T10:48:23.762Z,15.33
2019-04-11T10:51:19.079Z,14.83
2019-04-11T10:53:49.809Z,14.37
2019-04-11T10:56:43.181Z,14.73
2019-04-11T10:59:13.425Z,14.87
2019-04-11T11:02:00.632Z,14.50
2019-04-11T11:04:48.854Z,15.17
2019-04-11T11:07:27.165Z,14.77
2019-04-11T11:10:03.027Z,15.10
2019-04-11T11:12:53.797Z,15.10
2019-04-11T11:15:28.390Z,15.20
2019-04-11T11:20:53.913Z,13.70
2019-04-11T11:23:40.878Z,14.23
2019-04-11T11:26:12.656Z,15.53
2019-04-11T11:29:20.545Z,13.70
2019-04-11T11:32:07.198Z,14.87
2019-04-11T11:34:55.051Z,14.20
2019-04-11T11:37:39.557Z,13.90
2019-04-11T11:40:44.350Z,15.30
2019-04-11T11:43:18.960Z,15.37
2019-04-11T11:46:14.711Z,15.53
2019-04-11T11:48:52.580Z,15.17
2019-04-11T11:51:49.800Z,16.03
2019-04-11T11:54:27.186Z,14.47
2019-04-11T11:56:58.558Z,14.67
2019-04-11T11:59:40.750Z,14.13
2019-04-11T12:02:19.121Z,15.77
2019-04-11T12:05:16.224Z,15.70
2019-04-11T12:07:49.590Z,14.20
2019-04-11T12:10:44.103Z,15.43
2019-04-11T12:13:32.710Z,14.13
2019-04-11T12:16:09.915Z,15.93
2019-04-11T12:18:53.126Z,15.93
2019-04-11T12:21:26.486Z,14.23
2019-04-11T12:24:23.525Z,14.60
2019-04-11T12:27:27.058Z,15.20
2019-04-11T12:30:15.534Z,15.53
2019-04-11T12:33:08.980Z,14.73
2019-04-11T12:35:57.534Z,15.07
2019-04-11T12:38:43.882Z,14.33
2019-04-11T12:41:20.124Z,15.13
2019-04-11T12:44:11.605Z,14.93
2019-04-11T12:46:58.525Z,14.50
2019-04-11T12:49:52.822Z,15.20
2019-04-11T12:52:30.446Z,14.30
2019-04-11T12:54:59.907Z,15.00
2019-04-11T12:57:48.054Z,16.00
2019-04-11T13:00:42.766Z,16.07
2019-04-11T13:03:29.780Z,14.37
2019-04-11T13:06:03.153Z,14.63
2019-04-11T13:08:47.630Z,14.90
2019-04-11T13:11:17.106Z,14.10
2019-04-11T13:13:57.521Z,15.13
2019-04-11T13:16:27.567Z,14.80
2019-04-11T13:19:27.973Z,15.47
2019-04-11T13:22:00.470Z,15.53
2019-04-11T13:24:46.820Z,14.73
2019-04-11T13:27:21.098Z,14.90
2019-04-11T13:30:08.949Z,13.60
2019-04-11T13:32:55.887Z,13.83
2019-04-11T13:35:44.156Z,14.60
2019-04-11T13:38:22.174Z,12.80
2019-04-11T13:41:20.885Z,15.13
2019-04-11T13:44:11.227Z,13.73
2019-04-11T13:46:59.463Z,13.30
2019-04-11T13:49:40.777Z,13.57
2019-04-11T13:52:29.065Z,13.67
2019-04-11T13:55:09.564Z,13.73
2019-04-11T13:57:57.805Z,13.10
2019-04-11T14:00:45.806Z,12.70
2019-04-11T14:03:36.954Z,14.50
2019-04-11T14:06:13.371Z,13.03
2019-04-11T14:08:52.131Z,12.77
2019-04-11T14:11:21.820Z,13.00
2019-04-11T14:13:51.138Z,12.97
2019-04-11T14:16:22.062Z,12.80
2019-04-11T14:19:16.173Z,12.77
2019-04-11T14:21:48.381Z,13.33
2019-04-11T14:24:32.763Z,11.97
2019-04-11T14:27:02.181Z,14.00
2019-04-11T14:29:39.984Z,12.00
2019-04-11T14:32:30.162Z,12.77
2019-04-11T14:35:21.460Z,12.17
2019-04-11T14:38:15.509Z,13.07
2019-04-11T14:41:01.863Z,13.00
2019-04-11T14:43:31.612Z,12.93
2019-04-11T14:46:27.539Z,11.73
2019-04-11T14:49:10.246Z,12.23
2019-04-11T14:51:58.564Z,11.80
2019-04-11T14:54:34.024Z,11.77
2019-04-11T14:57:23.358Z,12.63
2019-04-11T15:00:00.386Z,13.40
2019-04-11T15:02:47.666Z,12.80
2019-04-11T15:05:37.362Z,13.63
2019-04-11T15:08:07.822Z,12.03
2019-04-11T15:11:00.233Z,11.67
2019-04-11T15:13:34.572Z,15.40
2019-04-11T15:16:28.124Z,13.37
2019-04-11T15:19:02.358Z,14.40
2019-04-11T15:22:07.842Z,13.30
2019-04-11T15:24:40.124Z,12.13
2019-04-11T15:27:33.196Z,11.90
2019-04-11T15:30:06.216Z,13.20
2019-04-11T15:32:57.899Z,12.63
2019-04-11T15:35:29.527Z,12.13
2019-04-11T15:38:18.613Z,14.70
2019-04-11T15:40:53.703Z,11.60
2019-04-11T15:43:45.300Z,11.03
2019-04-11T15:46:33.352Z,11.87
2019-04-11T15:49:29.595Z,11.70
2019-04-11T15:52:01.482Z,12.37
2019-04-11T15:54:52.875Z,11.23
2019-04-11T15:57:42.603Z,11.60
2019-04-11T16:00:31.507Z,10.93
2019-04-11T16:03:19.747Z,11.90
2019-04-11T16:06:09.118Z,11.47
2019-04-11T16:08:43.907Z,11.30
2019-04-11T16:11:31.133Z,10.07
2019-04-11T16:14:11.529Z,10.97
2019-04-11T16:16:59.736Z,11.13
2019-04-11T16:19:47.578Z,12.10
2019-04-11T16:22:32.977Z,12.37
2019-04-11T16:25:05.024Z,12.33
2019-04-11T16:28:07.113Z,11.80
2019-04-11T16:30:42.320Z,11.70
2019-04-11T16:33:39.742Z,12.00
2019-04-11T16:36:17.553Z,11.17
2019-04-11T16:39:14.754Z,12.10
2019-04-11T16:42:18.208Z,10.83
2019-04-11T16:45:24.644Z,11.90
2019-04-11T16:48:02.874Z,12.57
2019-04-11T16:50:34.443Z,11.13
2019-04-11T16:53:10.656Z,10.57
2019-04-11T16:55:43.123Z,10.13
2019-04-11T16:58:17.021Z,10.60
2019-04-11T17:00:52.079Z,11.73
2019-04-11T17:03:24.740Z,10.53
2019-04-11T17:06:08.178Z,10.20
2019-04-11T17:08:56.384Z,10.53
2019-04-11T17:11:28.901Z,10.33
2019-04-11T17:14:00.716Z,10.87
2019-04-11T17:16:31.886Z,10.80
2019-04-11T17:19:05.049Z,9.80
2019-04-11T17:21:43.140Z,10.03
2019-04-11T17:24:06.314Z,10.17
2019-04-11T17:26:35.914Z,10.23
2019-04-11T17:29:06.374Z,11.00
2019-04-11T17:31:38.405Z,11.33
2019-04-11T17:34:09.745Z,10.47
2019-04-11T17:36:41.234Z,11.23
2019-04-11T17:39:12.602Z,12.87
2019-04-11T17:41:44.333Z,10.87
2019-04-11T17:44:15.719Z,11.03
2019-04-11T17:46:47.459Z,9.87
2019-04-11T17:49:19.126Z,9.17
2019-04-11T17:51:55.658Z,10.03
2019-04-11T17:54:24.995Z,10.13
2019-04-11T17:56:59.279Z,9.17
2019-04-11T17:59:32.255Z,9.50
2019-04-11T18:02:05.706Z,10.37
2019-04-11T18:04:36.704Z,9.70
2019-04-11T18:07:06.000Z,9.53
2019-04-11T18:09:37.949Z,9.27
2019-04-11T18:12:07.800Z,8.73
2019-04-11T18:14:39.120Z,11.47
2019-04-11T18:17:09.306Z,9.23
2019-04-11T18:19:38.811Z,8.70
2019-04-11T18:22:11.154Z,9.80
2019-04-11T18:24:39.278Z,8.77
2019-04-11T18:27:08.553Z,7.87
2019-04-11T18:29:39.122Z,8.27
2019-04-11T18:32:08.444Z,7.70
2019-04-11T18:34:39.937Z,8.43
2019-04-11T18:37:11.410Z,7.73
2019-04-11T18:39:41.138Z,7.93
2019-04-11T18:42:10.826Z,7.93
2019-04-11T18:44:40.606Z,8.10
2019-04-11T18:47:10.144Z,8.23
2019-04-11T18:49:39.563Z,7.23
2019-04-11T18:52:19.155Z,7.73
2019-04-11T18:54:41.338Z,7.13
2019-04-11T18:57:10.644Z,8.17
2019-04-11T18:59:41.206Z,8.67
2019-04-11T19:02:11.541Z,8.70
2019-04-11T19:04:42.317Z,9.30
2019-04-11T19:07:14.814Z,10.13
2019-04-11T19:09:46.217Z,8.60
2019-04-11T19:12:22.008Z,7.97
2019-04-11T19:14:51.775Z,7.87
2019-04-11T19:17:21.168Z,8.23
2019-04-11T19:19:50.475Z,8.90
2019-04-11T19:22:36.298Z,8.03
2019-04-11T19:24:51.167Z,8.30
2019-04-11T19:27:21.945Z,8.37
2019-04-11T19:29:51.228Z,8.43
2019-04-11T19:32:20.752Z,8.57
2019-04-11T19:34:50.067Z,8.07
2019-04-11T19:37:19.371Z,8.43
2019-04-11T19:39:48.815Z,8.60
2019-04-11T19:42:19.621Z,8.20
2019-04-11T19:44:50.269Z,8.50
2019-04-11T19:47:21.705Z,7.80
2019-04-11T19:49:51.373Z,8.30
2019-04-11T19:52:20.970Z,7.97
2019-04-11T19:54:50.270Z,8.37
2019-04-11T19:57:20.608Z,8.43
2019-04-11T19:59:50.002Z,8.77
2019-04-11T20:02:23.094Z,8.80
2019-04-11T20:04:51.813Z,7.83
2019-04-11T20:07:21.109Z,8.30
2019-04-11T20:09:52.104Z,8.57
2019-04-11T20:12:21.813Z,7.70
2019-04-11T20:14:51.098Z,7.90
2019-04-11T20:17:20.450Z,7.97
2019-04-11T20:20:00.649Z,8.47
2019-04-11T20:22:21.126Z,8.67
2019-04-11T20:24:51.583Z,8.13
2019-04-11T20:27:23.274Z,8.77
2019-04-11T20:29:55.294Z,8.63
2019-04-11T20:32:25.439Z,8.30
2019-04-11T20:34:55.157Z,9.13
2019-04-11T20:37:24.963Z,8.30
2019-04-11T20:39:56.261Z,8.53
2019-04-11T20:42:25.940Z,7.97
2019-04-11T20:44:58.319Z,8.40
2019-04-11T20:47:29.497Z,8.90
2019-04-11T20:49:58.225Z,8.57
2019-04-11T20:52:27.520Z,8.93
2019-04-11T20:54:58.251Z,8.43
2019-04-11T20:57:27.716Z,8.43
2019-04-11T20:59:57.121Z,8.13
2019-04-11T21:02:29.028Z,9.03
2019-04-11T21:04:58.962Z,8.20
2019-04-11T21:07:31.967Z,6.63
2019-04-11T21:10:04.178Z,7.90
2019-04-11T21:12:32.628Z,7.73
2019-04-11T21:15:01.931Z,7.37
2019-04-11T21:17:31.299Z,8.10
2019-04-11T21:20:00.563Z,8.10
2019-04-11T21:22:29.862Z,7.77
2019-04-11T21:24:59.644Z,8.17
2019-04-11T21:27:29.570Z,6.83
2019-04-11T21:30:00.075Z,7.53
2019-04-11T21:32:31.801Z,7.40
2019-04-11T21:35:02.374Z,7.10
2019-04-11T21:37:32.330Z,7.93
2019-04-11T21:40:01.833Z,7.23
2019-04-11T21:42:31.218Z,7.70
2019-04-11T21:45:00.521Z,7.43
2019-04-11T21:47:29.845Z,6.93
2019-04-11T21:49:59.156Z,6.97
2019-04-11T21:52:28.448Z,6.83
2019-04-11T21:54:58.065Z,7.00
2019-04-11T21:57:28.172Z,7.53
2019-04-11T21:59:58.329Z,7.00
2019-04-11T22:02:28.053Z,7.27
2019-04-11T22:04:58.922Z,6.67
2019-04-11T22:07:31.033Z,7.20
2019-04-11T22:10:00.524Z,7.30
2019-04-11T22:12:30.155Z,6.83
2019-04-11T22:15:00.023Z,7.00
2019-04-11T22:17:29.310Z,7.23
2019-04-11T22:20:00.031Z,7.57
2019-04-11T22:22:29.334Z,6.83
2019-04-11T22:25:01.511Z,7.93
2019-04-11T22:27:30.809Z,7.30
2019-04-11T22:30:00.135Z,7.67
2019-04-11T22:32:29.416Z,7.90
2019-04-11T22:35:00.519Z,7.27
2019-04-11T22:37:30.203Z,6.30
2019-04-11T22:40:02.107Z,6.33
2019-04-11T22:42:30.986Z,6.40
2019-04-11T22:45:00.315Z,7.77
2019-04-11T22:47:29.741Z,7.70
2019-04-11T22:49:59.059Z,7.00
2019-04-11T22:52:29.467Z,6.97
2019-04-11T22:54:58.786Z,6.90
2019-04-11T22:57:28.127Z,7.67
2019-04-11T22:59:57.376Z,7.27
2019-04-11T23:02:41.545Z,7.03
2019-04-11T23:05:10.897Z,7.07
2019-04-11T23:07:40.452Z,6.20
2019-04-11T23:10:11.513Z,6.47
2019-04-11T23:12:42.904Z,7.10
2019-04-11T23:15:14.642Z,7.10
2019-04-11T23:17:43.931Z,7.00
2019-04-11T23:20:15.424Z,7.87
2019-04-11T23:22:44.721Z,6.77
2019-04-11T23:25:14.289Z,7.13
2019-04-11T23:27:45.071Z,7.33
2019-04-11T23:30:15.982Z,6.77
2019-04-11T23:32:46.589Z,7.03
2019-04-11T23:35:15.863Z,6.97
2019-04-11T23:37:52.052Z,8.13
2019-04-11T23:40:22.171Z,6.50
2019-04-11T23:42:52.585Z,6.97
2019-04-11T23:45:24.887Z,7.07
2019-04-11T23:47:54.503Z,6.23
2019-04-11T23:50:25.237Z,6.87
2019-04-11T23:52:57.929Z,6.73
2019-04-11T23:55:30.062Z,6.67
2019-04-11T23:58:01.133Z,7.20
